Time;durP1;ratioP1;P1;durP2;ratioP2;P2;SDS_P1;SDS_P2;PMS_P1;PMS_P2;Temp;Humidity;BMP_temperature;BMP_pressure;BME280_temperature;BME280_humidity;BME280_pressure;Samples;Min_cycle;Max_cycle;Signal;HPM_P1;HPM_P2
2021/11/01 00:00:16;;;;;;;5.32;2.30;;;;;;;14.56;79.02;99607.13;10213344;28;20480;-74
2021/11/01 00:05:14;;;;;;;5.47;2.45;;;;;;;14.59;79.08;99614.63;10218889;28;20069;-73
2021/11/01 00:10:12;;;;;;;4.88;2.20;;;;;;;14.63;78.94;99604.47;10208729;28;20092;-73
2021/11/01 00:15:08;;;;;;;5.65;3.05;;;;;;;14.66;78.90;99617.47;10211376;28;20049;-72
2021/11/01 00:20:07;;;;;;;5.13;2.40;;;;;;;14.67;79.03;99624.59;10206048;28;20700;-73
2021/11/01 00:25:05;;;;;;;5.35;2.58;;;;;;;14.71;78.81;99625.41;10206765;28;20085;-73
2021/11/01 00:30:05;;;;;;;3.85;1.83;;;;;;;14.73;78.06;99628.56;10201802;28;20466;-72
2021/11/01 00:35:03;;;;;;;4.15;1.98;;;;;;;14.78;78.01;99636.50;10212963;28;20118;-74
2021/11/01 00:40:01;;;;;;;6.05;1.58;;;;;;;14.93;78.03;99621.78;10209800;28;20053;-72
2021/11/01 00:44:57;;;;;;;4.35;1.33;;;;;;;14.89;79.90;99626.44;10207466;28;20077;-75
2021/11/01 00:49:55;;;;;;;3.13;1.40;;;;;;;14.84;80.88;99618.50;10204874;28;20144;-73
2021/11/01 00:54:58;;;;;;;2.55;1.13;;;;;;;14.82;82.26;99634.59;10208152;28;20112;-74
2021/11/01 00:59:57;;;;;;;4.18;1.27;;;;;;;14.78;82.65;99624.72;10211481;28;20185;-73
2021/11/01 01:04:53;;;;;;;4.53;1.65;;;;;;;14.69;83.19;99622.22;10204598;28;20042;-72
2021/11/01 01:09:50;;;;;;;4.85;1.92;;;;;;;14.59;82.93;99658.66;10207700;28;20530;-73
2021/11/01 01:14:54;;;;;;;5.10;1.40;;;;;;;14.39;78.41;99664.22;10214808;28;20058;-72
2021/11/01 01:19:57;;;;;;;6.78;1.30;;;;;;;14.10;73.38;99647.25;10208910;28;20090;-74
2021/11/01 01:24:59;;;;;;;13.10;1.92;;;;;;;14.00;71.37;99660.84;10209675;28;20045;-73
2021/11/01 01:29:56;;;;;;;12.55;2.33;;;;;;;13.92;70.03;99668.13;10213378;28;20037;-73
2021/11/01 01:34:52;;;;;;;17.10;2.40;;;;;;;13.79;70.87;99688.72;10222438;28;20129;-73
2021/11/01 01:39:49;;;;;;;12.60;1.90;;;;;;;13.67;71.85;99698.72;10223818;28;20046;-73
2021/11/01 01:44:45;;;;;;;15.68;2.80;;;;;;;13.55;71.79;99696.09;10208948;28;20077;-73
2021/11/01 01:49:43;;;;;;;12.00;1.98;;;;;;;13.54;72.82;99691.00;10216462;28;20042;-73
2021/11/01 01:54:40;;;;;;;16.42;2.40;;;;;;;13.49;73.19;99697.56;10223630;28;20041;-73
2021/11/01 01:59:36;;;;;;;17.92;2.67;;;;;;;13.41;73.33;99673.88;10223980;28;20073;-73
2021/11/01 02:09:57;;;;;;;17.27;2.80;;;;;;;13.46;73.83;99673.59;10351737;23;20040;-72
2021/11/01 02:14:56;;;;;;;15.95;2.47;;;;;;;13.43;74.25;99647.63;10276782;28;20099;-72
2021/11/01 02:19:56;;;;;;;15.48;2.65;;;;;;;13.28;74.26;99666.97;10265152;28;20446;-72
2021/11/01 02:25:02;;;;;;;16.15;2.70;;;;;;;13.22;74.80;99669.94;10271810;28;20061;-72
2021/11/01 02:29:59;;;;;;;19.05;2.47;;;;;;;13.17;75.22;99672.97;10284257;28;20045;-72
2021/11/01 02:34:56;;;;;;;21.15;2.67;;;;;;;13.13;74.67;99661.13;10282974;28;20060;-72
2021/11/01 02:39:55;;;;;;;16.48;2.33;;;;;;;13.04;75.04;99658.59;10280052;28;20048;-72
2021/11/01 02:45:01;;;;;;;14.55;2.13;;;;;;;13.01;74.87;99653.03;10268372;28;20214;-72
2021/11/01 02:49:59;;;;;;;15.65;2.33;;;;;;;13.03;75.19;99645.25;10283564;28;20111;-72
2021/11/01 02:54:57;;;;;;;17.10;2.17;;;;;;;13.01;74.97;99648.34;10292683;28;20048;-72
2021/11/01 02:59:54;;;;;;;14.18;2.20;;;;;;;12.95;75.64;99633.34;10281311;28;20561;-72
2021/11/01 03:04:50;;;;;;;19.02;3.38;;;;;;;12.92;76.02;99647.75;10263095;28;20498;-71
2021/11/01 03:09:49;;;;;;;11.95;1.83;;;;;;;12.90;76.82;99652.00;10276229;28;20041;-72
2021/11/01 03:14:50;;;;;;;17.77;2.95;;;;;;;12.82;77.44;99651.06;10274984;28;20057;-72
2021/11/01 03:20:12;;;;;;;14.85;1.88;;;;;;;12.68;78.36;99668.00;10273549;28;20048;-72
2021/11/01 03:25:15;;;;;;;14.10;1.85;;;;;;;12.54;78.62;99667.69;10241511;28;20087;-72
2021/11/01 03:30:15;;;;;;;10.90;1.73;;;;;;;12.52;79.01;99669.97;10286321;28;20478;-71
2021/11/01 03:35:13;;;;;;;17.40;1.98;;;;;;;12.50;79.33;99669.53;10285822;28;20114;-72
2021/11/01 03:40:14;;;;;;;18.98;2.78;;;;;;;12.42;79.90;99694.03;10273770;28;20144;-72
2021/11/01 03:45:12;;;;;;;15.70;2.50;;;;;;;12.38;79.81;99687.69;10278284;28;20491;-72
2021/11/01 03:50:26;;;;;;;16.80;2.50;;;;;;;12.37;79.81;99699.81;10274420;28;20049;-72
2021/11/01 03:55:29;;;;;;;15.98;3.03;;;;;;;12.33;80.24;99698.91;10286896;28;20094;-72
2021/11/01 04:00:29;;;;;;;19.60;3.73;;;;;;;12.19;80.50;99704.06;10277022;28;20128;-71
2021/11/01 04:05:26;;;;;;;23.63;3.67;;;;;;;12.20;80.59;99702.88;10267629;28;20041;-72
2021/11/01 04:10:23;;;;;;;18.83;2.63;;;;;;;12.15;80.96;99694.94;10275636;28;20068;-71
2021/11/01 04:15:26;;;;;;;21.20;2.97;;;;;;;12.03;81.29;99692.28;10271051;28;20536;-72
2021/11/01 04:20:29;;;;;;;19.98;2.53;;;;;;;12.00;81.37;99700.06;10271620;28;20111;-71
2021/11/01 04:25:27;;;;;;;22.23;3.73;;;;;;;11.94;81.70;99695.97;10271406;28;20107;-72
2021/11/01 04:30:25;;;;;;;22.73;3.10;;;;;;;11.86;81.98;99694.19;10288373;28;20040;-71
2021/11/01 04:35:27;;;;;;;20.77;2.60;;;;;;;11.88;82.35;99708.34;10277568;28;20060;-72
2021/11/01 04:55:56;;;;;;;14.30;2.20;;;;;;;11.93;81.77;99710.84;10266217;28;20126;-72
2021/11/01 05:00:53;;;;;;;12.95;1.70;;;;;;;11.92;81.04;99720.19;10265466;28;20065;-73
2021/11/01 05:05:51;;;;;;;17.38;3.05;;;;;;;11.92;81.33;99720.19;10253201;28;20047;-73
2021/11/01 05:10:50;;;;;;;21.58;4.03;;;;;;;11.89;81.00;99720.91;10271334;28;20071;-73
2021/11/01 05:20:50;;;;;;;13.98;3.15;;;;;;;11.92;81.19;99741.31;10276609;28;20044;-73
2021/11/01 05:25:51;;;;;;;16.43;2.20;;;;;;;11.94;80.86;99739.81;10271946;28;20072;-72
2021/11/01 05:35:50;;;;;;;23.13;2.95;;;;;;;11.86;81.22;99743.47;10263820;28;20099;-72
2021/11/01 05:40:47;;;;;;;16.38;3.05;;;;;;;11.89;81.17;99731.84;10280613;28;20083;-72
2021/11/01 05:45:43;;;;;;;20.95;3.13;;;;;;;11.90;81.21;99729.91;10259958;28;20117;-72
2021/11/01 05:50:40;;;;;;;21.20;2.97;;;;;;;11.85;81.37;99732.88;10255062;28;20050;-72
2021/11/01 05:55:49;;;;;;;19.67;3.25;;;;;;;11.83;81.46;99738.69;10255973;28;20065;-73
2021/11/01 06:00:57;;;;;;;17.77;3.30;;;;;;;11.84;81.68;99740.28;10272445;28;20045;-72
2021/11/01 06:13:25;;;;;;;26.77;4.07;;;;;;;11.82;81.46;99753.53;10260243;28;20110;-72
2021/11/01 06:16:09;;;;;;;17.20;3.22;;;;;;;11.79;81.89;99754.25;10254458;28;20072;-72
2021/11/01 06:21:14;;;;;;;19.42;3.88;;;;;;;11.82;81.58;99752.75;10275621;28;20056;-72
2021/11/01 06:26:11;;;;;;;17.63;3.15;;;;;;;11.81;81.52;99757.41;10251813;28;20048;-72
2021/11/01 06:31:11;;;;;;;14.82;2.65;;;;;;;11.79;81.86;99759.72;10282419;28;20411;-72
2021/11/01 07:18:19;;;;;;;13.57;3.17;;;;;;;11.69;81.36;99804.00;10185167;28;20077;-72
2021/11/01 08:36:41;;;;;;;12.98;2.10;;;;;;;11.83;76.41;99829.06;10255786;28;20506;-73
2021/11/01 09:28:34;;;;;;;17.15;2.80;;;;;;;12.07;72.97;99841.09;10262459;28;20057;-73
2021/11/01 09:44:25;;;;;;;11.10;1.98;;;;;;;12.00;72.55;99845.25;10252736;28;20566;-73
2021/11/01 09:49:22;;;;;;;10.52;1.85;;;;;;;11.95;71.96;99856.47;10257473;28;20049;-73
2021/11/01 09:54:26;;;;;;;11.90;2.03;;;;;;;11.86;71.58;99857.69;10253070;28;20085;-72
2021/11/01 09:59:25;;;;;;;9.32;1.60;;;;;;;11.93;71.93;99861.50;10268264;28;20502;-73
2021/11/01 10:04:31;;;;;;;9.65;1.90;;;;;;;11.97;71.50;99870.63;10267741;28;20045;-72
2021/11/01 10:09:29;;;;;;;10.73;1.90;;;;;;;12.04;70.38;99867.25;10247774;28;20053;-73
2021/11/01 10:14:26;;;;;;;12.90;1.95;;;;;;;12.02;70.07;99874.22;10260334;28;20075;-72
2021/11/01 10:19:35;;;;;;;11.57;2.03;;;;;;;12.11;69.89;99866.66;10273442;28;20552;-73
2021/11/01 10:24:40;;;;;;;7.32;1.38;;;;;;;12.36;69.55;99862.66;10253532;28;20080;-73
2021/11/01 10:29:59;;;;;;;13.23;1.80;;;;;;;12.44;68.08;99860.94;10256159;28;20056;-72
2021/11/01 10:35:10;;;;;;;8.93;1.30;;;;;;;12.57;68.34;99848.72;10262000;28;20057;-73
2021/11/01 10:40:09;;;;;;;14.60;2.38;;;;;;;12.58;67.58;99855.03;10270965;28;20075;-73
2021/11/01 10:45:27;;;;;;;11.52;1.30;;;;;;;12.75;66.86;99838.22;10276945;28;20056;-73
2021/11/01 10:57:02;;;;;;;7.75;1.45;;;;;;;12.84;65.00;99849.03;10265245;28;20550;-73
2021/11/01 11:12:00;;;;;;;8.02;1.52;;;;;;;12.75;64.88;99821.75;10259688;28;20458;-72
2021/11/01 11:27:17;;;;;;;7.40;1.17;;;;;;;13.01;63.95;99814.94;10263411;28;20072;-73
2021/11/01 11:43:36;;;;;;;8.43;1.52;;;;;;;13.24;61.77;99821.34;10270205;28;20107;-73
2021/11/01 11:48:35;;;;;;;8.48;1.95;;;;;;;13.17;61.52;99821.19;10264708;28;20045;-73
2021/11/01 11:53:33;;;;;;;7.03;0.98;;;;;;;13.16;62.01;99822.34;10272400;28;20087;-73
2021/11/01 11:58:39;;;;;;;7.45;1.38;;;;;;;13.46;61.39;99816.38;10265065;28;20107;-72
2021/11/01 12:03:39;;;;;;;9.10;1.02;;;;;;;13.48;60.67;99814.03;10267949;28;20041;-72
2021/11/01 12:08:43;;;;;;;6.88;1.20;;;;;;;13.47;58.69;99804.22;10264543;28;20036;-73
2021/11/01 12:19:05;;;;;;;10.05;1.63;;;;;;;13.25;59.43;99817.47;10265697;28;20457;-72
2021/11/01 12:24:07;;;;;;;8.60;0.90;;;;;;;13.50;58.52;99811.75;10242718;28;20053;-72
2021/11/01 12:29:09;;;;;;;13.15;1.42;;;;;;;13.64;58.26;99812.03;10281474;28;20037;-73
2021/11/01 12:34:12;;;;;;;6.30;1.25;;;;;;;13.53;58.91;99811.03;10267495;28;20049;-72
2021/11/01 12:39:22;;;;;;;6.07;1.25;;;;;;;13.84;58.60;99820.31;10270267;28;20061;-73
2021/11/01 12:49:54;;;;;;;9.00;1.23;;;;;;;13.48;59.31;99825.03;10245081;28;20042;-72
2021/11/01 13:00:12;;;;;;;5.90;1.10;;;;;;;13.90;57.44;99818.84;10245190;28;20104;-73
2021/11/01 13:05:21;;;;;;;8.50;1.48;;;;;;;14.08;55.05;99833.72;10254642;28;20411;-73
2021/11/01 13:20:27;;;;;;;5.55;1.00;;;;;;;14.44;54.14;99834.41;10260303;28;20103;-72
2021/11/01 13:41:27;;;;;;;6.80;1.13;;;;;;;15.12;51.17;99854.06;10239489;28;20402;-73
2021/11/01 13:46:27;;;;;;;3.72;0.90;;;;;;;15.26;51.20;99859.78;10221629;28;20049;-73
2021/11/01 13:51:29;;;;;;;7.57;1.00;;;;;;;15.05;51.37;99871.25;10233869;28;20046;-73
2021/11/01 13:56:37;;;;;;;5.25;0.90;;;;;;;14.59;52.81;99870.47;10218288;28;20099;-73
2021/11/01 14:32:59;;;;;;;9.00;1.30;;;;;;;14.13;53.60;99886.81;10237975;28;20045;-72
2021/11/01 15:09:49;;;;;;;10.02;1.15;;;;;;;13.13;56.95;99897.16;10225648;28;20042;-73
2021/11/01 15:40:33;;;;;;;10.27;1.42;;;;;;;12.78;58.96;99919.78;10265522;28;20049;-73
2021/11/01 16:17:29;;;;;;;8.70;1.60;;;;;;;12.36;61.07;99936.69;10242509;28;20048;-73
2021/11/01 16:22:27;;;;;;;10.00;1.45;;;;;;;12.33;61.14;99942.88;10258159;28;20060;-73
2021/11/01 16:27:24;;;;;;;11.43;1.92;;;;;;;12.29;62.48;99941.16;10259056;28;20045;-73
2021/11/01 16:32:26;;;;;;;9.30;1.85;;;;;;;12.20;63.18;99944.06;10266997;28;20044;-73
2021/11/01 16:37:28;;;;;;;10.57;1.88;;;;;;;12.15;63.24;99941.56;10254401;28;20040;-73
2021/11/01 16:42:30;;;;;;;7.43;1.50;;;;;;;12.13;63.57;99943.84;10268398;28;20045;-73
2021/11/01 16:47:27;;;;;;;6.97;1.63;;;;;;;12.13;63.88;99949.31;10259258;28;20091;-73
2021/11/01 16:52:25;;;;;;;9.27;2.10;;;;;;;12.12;64.24;99951.28;10262664;28;20469;-73
2021/11/01 16:57:26;;;;;;;10.07;2.10;;;;;;;12.09;65.19;99948.41;10259790;28;20106;-73
2021/11/01 17:23:46;;;;;;;7.15;1.85;;;;;;;11.59;66.82;99962.16;10253790;28;20049;-73
2021/11/01 17:28:55;;;;;;;6.18;1.50;;;;;;;11.52;66.33;99959.19;10263818;28;20453;-72
2021/11/01 18:37:41;;;;;;;9.15;2.70;;;;;;;10.78;69.99;99990.31;10264360;28;20053;-71
2021/11/01 18:53:07;;;;;;;14.57;4.25;;;;;;;10.57;70.87;100002.09;10288474;28;20079;-71
2021/11/01 18:58:05;;;;;;;9.88;3.10;;;;;;;10.43;72.34;99998.84;10286111;28;20082;-71
2021/11/01 19:03:03;;;;;;;12.20;3.72;;;;;;;10.34;72.24;99989.91;10282397;28;20048;-71
2021/11/01 19:08:15;;;;;;;13.90;4.85;;;;;;;10.22;72.43;99985.94;10259954;28;20522;-71
2021/11/01 20:05:58;;;;;;;10.30;5.00;;;;;;;9.28;76.57;100007.97;10254537;28;20049;-73
2021/11/01 21:24:53;;;;;;;8.52;2.42;;;;;;;9.24;79.15;100004.31;10238880;28;20095;-73
2021/11/01 21:29:50;;;;;;;7.38;2.50;;;;;;;9.25;78.40;100003.97;10253139;28;20050;-72
2021/11/01 21:34:56;;;;;;;9.02;2.40;;;;;;;9.24;78.58;100013.28;10259790;28;20079;-72
2021/11/01 21:39:53;;;;;;;11.95;2.25;;;;;;;9.23;78.89;100010.88;10253553;28;20637;-72
2021/11/01 21:44:55;;;;;;;8.00;2.30;;;;;;;9.19;79.11;100010.75;10264409;28;20060;-72
2021/11/01 21:49:52;;;;;;;10.35;1.92;;;;;;;9.21;79.56;100018.56;10261204;28;20040;-72
2021/11/01 21:54:57;;;;;;;10.32;2.30;;;;;;;9.21;78.83;100011.22;10277706;28;20507;-72
2021/11/01 22:20:27;;;;;;;13.52;2.70;;;;;;;9.02;80.29;99981.56;10273303;28;20080;-72
2021/11/01 22:25:30;;;;;;;6.93;2.47;;;;;;;8.98;80.15;99977.91;10273361;28;20063;-72
2021/11/01 22:41:08;;;;;;;9.48;2.63;;;;;;;8.94;80.64;99959.81;10259736;28;20065;-72
2021/11/01 22:56:47;;;;;;;9.38;2.40;;;;;;;8.91;80.77;99949.53;10271839;28;20064;-72
2021/11/01 23:01:46;;;;;;;7.75;2.40;;;;;;;8.89;80.23;99936.25;10271233;28;20099;-72
2021/11/01 23:33:08;;;;;;;6.75;2.15;;;;;;;8.74;81.20;99936.75;10219905;28;20057;-71
2021/11/01 23:38:05;;;;;;;9.23;2.33;;;;;;;8.79;80.90;99942.03;10262046;28;20076;-72
2021/11/01 23:43:01;;;;;;;8.10;2.08;;;;;;;8.71;81.52;99935.47;10276566;28;20614;-72
2021/11/01 23:47:58;;;;;;;10.90;2.30;;;;;;;8.67;81.80;99933.72;10257944;28;20108;-72
2021/11/01 23:53:03;;;;;;;9.07;2.95;;;;;;;8.68;81.39;99936.13;10270170;28;20049;-72
2021/11/01 23:58:02;;;;;;;9.90;3.45;;;;;;;8.63;81.84;99939.00;10264762;28;20042;-72
